Pintail — WDF5177 — position and weather

sailwx.info

Track history (hours):
 
Tides and Currents Weather Stations Pressure Air Temp Water Temp Dewpoint Dewpoint Depression Visibility Wind Speed Wind Dir Waves Ship Positions

Pintail

Owner: Pintail Marine Services, Inc, Friday Harbor, WA. More information available from US FCC via Universal Licensing System and Coast Guard Vessel Documentation Center.

Last reported at 2016-Aug-30 10:31 UTC. Time now 2016-Aug-30 10:56 UTC.
Position N 48°32' W 122°60'.

Length 19 m.

Type: Towing. MMSI: 367460260.

Date/timePositionNaut miles runAvg speedWind from/ knotsBaromVisibWave heightAir tempDewpointWater temp
2016-Aug-30 10:31N 48°32' W 122°60'0 0.0
2016-Aug-30 09:25N 48°32' W 122°60'0 0.0
2016-Aug-30 08:31N 48°32' W 122°60'0 0.0
2016-Aug-30 07:31N 48°32' W 122°60'0 0.0
2016-Aug-30 06:31N 48°32' W 122°60'0 0.0
2016-Aug-30 05:28N 48°32' W 122°60'0 0.0
2016-Aug-30 04:31N 48°32' W 122°60'0 0.0
2016-Aug-30 03:31N 48°32' W 122°60'0 0.0
2016-Aug-30 02:31N 48°32' W 122°60'0 0.0
2016-Aug-30 01:28N 48°32' W 122°60'0 0.0
2016-Aug-30 00:31N 48°32' W 122°60'0 0.0
2016-Aug-29 23:22N 48°32' W 122°60'0 0.0
2016-Aug-29 22:31N 48°32' W 122°60'0 0.0
2016-Aug-29 21:28N 48°32' W 122°60'0 0.0
2016-Aug-29 20:31N 48°32' W 122°60'0 0.1
2016-Aug-29 19:33N 48°32' W 122°60'5 5.5
2016-Aug-29 18:33N 48°34' W 122°52'6 5.6
2016-Aug-29 17:30N 48°32' W 122°44'5 5.2
2016-Aug-29 16:30N 48°31' W 122°36'6 4.3
2016-Aug-29 15:12N 48°32' W 122°45'4 6.1
2016-Aug-29 14:32N 48°33' W 122°51'7 6.5
2016-Aug-29 13:29N 48°36' W 122°60'3 3.3
2016-Aug-29 12:33N 48°33' W 123°00'1 1.4
2016-Aug-29 11:32N 48°32' W 122°60'0 0.0
2016-Aug-29 10:32N 48°32' W 122°60'0 0.0
2016-Aug-29 09:32N 48°32' W 122°60'0 0.0
2016-Aug-29 08:32N 48°32' W 122°60'0 0.0
2016-Aug-29 07:29N 48°32' W 122°60'0 0.0
2016-Aug-29 06:32N 48°32' W 122°60'0 0.0
2016-Aug-29 05:32N 48°32' W 122°60'0 0.0
2016-Aug-29 04:32N 48°32' W 122°60'0 0.0
2016-Aug-29 03:29N 48°32' W 122°60'0 0.0
2016-Aug-29 02:32N 48°32' W 122°60'0 0.0
2016-Aug-29 01:32N 48°32' W 122°60'0 0.0
2016-Aug-29 00:32N 48°32' W 122°60'0 0.0
2016-Aug-28 23:20N 48°32' W 122°60'0 0.0
2016-Aug-28 22:32N 48°32' W 122°60'0 0.0
2016-Aug-28 21:32N 48°32' W 122°60'0 0.0
2016-Aug-28 20:31N 48°32' W 122°60'0 0.0
2016-Aug-28 19:31N 48°32' W 122°60'0 0.0
2016-Aug-28 18:31N 48°32' W 122°60'0 0.0
2016-Aug-28 17:31N 48°32' W 122°60'0 0.0
2016-Aug-28 16:28N 48°32' W 122°60'0 0.0
2016-Aug-28 15:28N 48°32' W 122°60'0 0.0
2016-Aug-28 14:31N 48°32' W 122°60'0 0.0
2016-Aug-28 13:29N 48°32' W 122°60'0 0.0
2016-Aug-28 12:25N 48°32' W 122°60'0 0.0
2016-Aug-28 11:31N 48°32' W 122°60'0 0.0
2016-Aug-28 10:28N 48°32' W 122°60'0 0.0
2016-Aug-28 09:31N 48°32' W 122°60'0 0.0
2016-Aug-28 08:31N 48°32' W 122°60'0 0.0
2016-Aug-28 07:28N 48°32' W 122°60'0 0.0
2016-Aug-28 06:28N 48°32' W 122°60'0 0.0
2016-Aug-28 05:31N 48°32' W 122°60'0 0.0
2016-Aug-28 04:28N 48°32' W 122°60'0 0.0
2016-Aug-28 03:31N 48°32' W 122°60'0 0.0
2016-Aug-28 02:31N 48°32' W 122°60'0 0.0
2016-Aug-28 01:31N 48°32' W 122°60'0 0.0
2016-Aug-28 00:33N 48°32' W 122°60'2 0.3
2016-Aug-27 18:29N 48°34' W 123°00'2 2.1
2016-Aug-27 17:32N 48°32' W 122°60'0 0.0
2016-Aug-27 16:29N 48°32' W 122°60'0 0.0
2016-Aug-27 15:32N 48°32' W 122°60'0 0.0
2016-Aug-27 14:29N 48°32' W 122°60'0 0.0
2016-Aug-27 13:32N 48°32' W 122°60'0 0.0
2016-Aug-27 12:32N 48°32' W 122°60'0 0.0
2016-Aug-27 11:32N 48°32' W 122°60'0 0.0
2016-Aug-27 10:32N 48°32' W 122°60'0 0.0
2016-Aug-27 09:32N 48°32' W 122°60'0 0.0
2016-Aug-27 08:32N 48°32' W 122°60'0 0.0
2016-Aug-27 07:32N 48°32' W 122°60'0 0.0
2016-Aug-27 06:32N 48°32' W 122°60'0 0.0
2016-Aug-27 04:32N 48°32' W 122°60'0 0.0
2016-Aug-27 03:33N 48°32' W 122°60'0 0.0
2016-Aug-27 02:29N 48°32' W 122°60'0 0.0
2016-Aug-27 01:32N 48°32' W 122°60'0 0.0
2016-Aug-27 00:32N 48°32' W 122°60'0 0.0
2016-Aug-26 23:32N 48°32' W 122°60'0 0.0
2016-Aug-26 22:31N 48°32' W 122°60'0 0.0
2016-Aug-26 21:31N 48°32' W 122°60'0 0.0
2016-Aug-26 20:31N 48°32' W 122°60'1 1.5
2016-Aug-26 19:33N 48°32' W 122°58'5 5.4
2016-Aug-26 18:32N 48°33' W 122°50'7 6.1
2016-Aug-26 17:23N 48°31' W 122°40'2 2.5
2016-Aug-26 16:30N 48°31' W 122°36'8 6.0
2016-Aug-26 15:14N 48°32' W 122°48'4 6.5
2016-Aug-26 14:33N 48°34' W 122°53'5 5.1
2016-Aug-26 13:32N 48°32' W 122°60'0 0.0
2016-Aug-26 12:29N 48°32' W 122°60'0 0.0
2016-Aug-26 11:29N 48°32' W 122°60'0 0.0
2016-Aug-26 10:32N 48°32' W 122°60'0 0.0
2016-Aug-26 09:32N 48°32' W 122°60'0 0.0
2016-Aug-26 08:32N 48°32' W 122°60'0 0.0
2016-Aug-26 07:32N 48°32' W 122°60'0 0.0
2016-Aug-26 06:32N 48°32' W 122°60'0 0.0
2016-Aug-26 04:27N 48°32' W 122°60'0 0.0
2016-Aug-26 03:32N 48°32' W 122°60'0 0.0
2016-Aug-26 02:32N 48°32' W 122°60'0 0.0
2016-Aug-26 01:32N 48°32' W 122°60'0 0.0
2016-Aug-26 00:32N 48°32' W 122°60'0 0.0
2016-Aug-25 23:27N 48°32' W 122°60'0 0.0
2016-Aug-25 22:29N 48°32' W 122°60'0 0.0
2016-Aug-25 21:32N 48°32' W 122°60'0 0.0
2016-Aug-25 20:32N 48°32' W 122°60'0 0.0
2016-Aug-25 19:29N 48°32' W 122°60'0 0.0
2016-Aug-25 18:32N 48°32' W 122°60'0 0.0
2016-Aug-25 17:32N 48°32' W 122°60'0 0.0
2016-Aug-25 16:32N 48°32' W 122°60'0 0.0
2016-Aug-25 15:32N 48°32' W 122°60'0 0.0
2016-Aug-25 14:32N 48°32' W 122°60'0 0.0
2016-Aug-25 13:29N 48°32' W 122°60'0 0.0
2016-Aug-25 12:32N 48°32' W 122°60'0 0.0
2016-Aug-25 11:32N 48°32' W 122°60'0 0.0
2016-Aug-25 10:32N 48°32' W 122°60'0 0.0
2016-Aug-25 09:32N 48°32' W 122°60'0 0.0
2016-Aug-25 08:26N 48°32' W 122°60'0 0.0
2016-Aug-25 07:29N 48°32' W 122°60'0 0.0
2016-Aug-25 06:32N 48°32' W 122°60'0 0.0
2016-Aug-25 04:33N 48°32' W 122°60'0 0.0
2016-Aug-25 03:32N 48°32' W 122°60'0 0.0
2016-Aug-25 02:32N 48°32' W 122°60'0 0.0
2016-Aug-25 01:32N 48°32' W 122°60'0 0.0
2016-Aug-25 00:32N 48°32' W 122°60'0 0.0
2016-Aug-24 23:32N 48°32' W 122°60'0 0.0
2016-Aug-24 22:32N 48°32' W 122°60'0 0.0
2016-Aug-24 21:31N 48°32' W 122°60'0 0.0
2016-Aug-24 20:33N 48°32' W 122°60'3 3.3
2016-Aug-24 19:33N 48°33' W 122°55'5 5.2
2016-Aug-24 18:32N 48°32' W 122°48'7 5.9
2016-Aug-24 17:21N 48°31' W 122°37'8 4.5
2016-Aug-24 15:32N 48°32' W 122°50'5 5.1
2016-Aug-24 14:33N 48°32' W 122°57'2 1.8
2016-Aug-24 13:23N 48°32' W 122°60'0 0.0
2016-Aug-24 12:32N 48°32' W 122°60'0 0.0
2016-Aug-24 11:32N 48°32' W 122°60'0 0.0
2016-Aug-24 10:32N 48°32' W 122°60'0 0.0
2016-Aug-24 09:32N 48°32' W 122°60'0 0.0
2016-Aug-24 08:32N 48°32' W 122°60'0 0.0
2016-Aug-24 07:29N 48°32' W 122°60'0 0.0
2016-Aug-24 06:26N 48°32' W 122°60'0 0.0
2016-Aug-24 04:32N 48°32' W 122°60'0 0.0
2016-Aug-24 03:32N 48°32' W 122°60'0 0.0
2016-Aug-24 02:32N 48°32' W 122°60'0 0.0
2016-Aug-24 01:32N 48°32' W 122°60'0 0.0
2016-Aug-24 00:32N 48°32' W 122°60'0 0.0
2016-Aug-23 23:29N 48°32' W 122°60'0 0.0
2016-Aug-23 22:32N 48°32' W 122°60'0 0.0
2016-Aug-23 21:32N 48°32' W 122°60'0 0.0
2016-Aug-23 20:29N 48°32' W 122°60'0 0.0
2016-Aug-23 19:32N 48°32' W 122°60'0 0.0
2016-Aug-23 18:33N 48°32' W 122°60'0 0.0
2016-Aug-23 17:29N 48°32' W 122°60'0 0.0
2016-Aug-23 16:32N 48°32' W 122°60'0 0.0
2016-Aug-23 15:26N 48°32' W 122°60'0 0.0
2016-Aug-23 14:30N 48°32' W 122°60'0 0.0
2016-Aug-23 13:32N 48°32' W 122°60'0 0.0
2016-Aug-23 12:32N 48°32' W 122°60'0 0.0
2016-Aug-23 11:32N 48°32' W 122°60'0 0.0
2016-Aug-23 10:32N 48°32' W 122°60'0 0.0
2016-Aug-23 09:32N 48°32' W 122°60'0 0.0
2016-Aug-23 08:32N 48°32' W 122°60'0 0.0
2016-Aug-23 07:32N 48°32' W 122°60'0 0.0
2016-Aug-23 06:32N 48°32' W 122°60'0 0.0
2016-Aug-23 05:32N 48°32' W 122°60'0 0.0
2016-Aug-23 04:32N 48°32' W 122°60'0 0.0
2016-Aug-23 03:29N 48°32' W 122°60'0 0.0
2016-Aug-23 02:32N 48°32' W 122°60'0 0.0
2016-Aug-23 01:32N 48°32' W 122°60'0 0.0
2016-Aug-23 00:28N 48°32' W 122°60'0 0.0
2016-Aug-22 23:31N 48°32' W 122°60'0 0.0
2016-Aug-22 22:31N 48°32' W 122°60'0 0.0
2016-Aug-22 21:31N 48°32' W 122°60'0 0.1
2016-Aug-22 20:28N 48°32' W 122°60'4 4.8
2016-Aug-22 19:33N 48°34' W 122°54'6 5.3
2016-Aug-22 18:25N 48°32' W 122°46'6 7.0
2016-Aug-22 17:33N 48°31' W 122°37'9 4.4
2016-Aug-22 15:33N 48°33' W 122°50'5 4.6
2016-Aug-22 14:33N 48°33' W 122°57'2 2.2
2016-Aug-22 13:32N 48°32' W 122°60'0 0.0
2016-Aug-22 12:32N 48°32' W 122°60'0 0.0
2016-Aug-22 11:32N 48°32' W 122°60'0 0.0
2016-Aug-22 10:29N 48°32' W 122°60'0 0.0
2016-Aug-22 09:32N 48°32' W 122°60'0 0.0
2016-Aug-22 08:32N 48°32' W 122°60'0 0.0
2016-Aug-22 07:32N 48°32' W 122°60'0 0.0
2016-Aug-22 06:32N 48°32' W 122°60'0 0.0
2016-Aug-22 05:32N 48°32' W 122°60'0 0.0
2016-Aug-22 04:32N 48°32' W 122°60'0 0.0
2016-Aug-22 03:32N 48°32' W 122°60'0 0.0
2016-Aug-22 02:29N 48°32' W 122°60'0 0.0
2016-Aug-22 01:32N 48°32' W 122°60'0 0.0
2016-Aug-22 00:29N 48°32' W 122°60'0 0.0
2016-Aug-21 23:32N 48°32' W 122°60'0 0.0
2016-Aug-21 22:32N 48°32' W 122°60'0 0.0
2016-Aug-21 21:26N 48°32' W 122°60'0 0.0
2016-Aug-21 20:32N 48°32' W 122°60'0 0.0
2016-Aug-21 19:32N 48°32' W 122°60'0 0.0
2016-Aug-21 18:26N 48°32' W 122°60'0 0.0
2016-Aug-21 17:29N 48°32' W 122°60'0 0.0
2016-Aug-21 16:23N 48°32' W 122°60'0 0.0
2016-Aug-21 15:32N 48°32' W 122°60'0 0.0
2016-Aug-21 14:32N 48°32' W 122°60'0 0.0
2016-Aug-21 13:29N 48°32' W 122°60'0 0.0
2016-Aug-21 12:32N 48°32' W 122°60'0 0.0
2016-Aug-21 11:32N 48°32' W 122°60'0 0.0
2016-Aug-21 10:32N 48°32' W 122°60'0 0.0
2016-Aug-21 09:30N 48°32' W 122°60'0 0.0
2016-Aug-21 08:32N 48°32' W 122°60'0 0.0
2016-Aug-21 07:32N 48°32' W 122°60'0 0.0
2016-Aug-21 06:29N 48°32' W 122°60'0 0.0
2016-Aug-21 05:32N 48°32' W 122°60'0 0.0
2016-Aug-21 04:32N 48°32' W 122°60'0 0.0
2016-Aug-21 03:32N 48°32' W 122°60'0 0.0
2016-Aug-21 02:32N 48°32' W 122°60'0 0.0
2016-Aug-21 01:29N 48°32' W 122°60'0 0.0
2016-Aug-21 00:32N 48°32' W 122°60'0 0.0
2016-Aug-20 23:32N 48°32' W 122°60'0 0.0
2016-Aug-20 22:32N 48°32' W 122°60'0 0.0
2016-Aug-20 21:32N 48°32' W 122°60'0 0.0
2016-Aug-20 20:32N 48°32' W 122°60'0 0.0
2016-Aug-20 19:32N 48°32' W 122°60'0 0.0
2016-Aug-20 18:30N 48°32' W 122°60'0 0.0
2016-Aug-20 17:32N 48°32' W 122°60'0 0.0
2016-Aug-20 16:32N 48°32' W 122°60'0 0.0
2016-Aug-20 15:32N 48°32' W 122°60'0 0.0
2016-Aug-20 14:32N 48°32' W 122°60'0 0.0
2016-Aug-20 13:32N 48°32' W 122°60'0 0.0
2016-Aug-20 12:29N 48°32' W 122°60'0 0.0
2016-Aug-20 11:32N 48°32' W 122°60'0 0.0
2016-Aug-20 10:32N 48°32' W 122°60'  
Track history (hours):
 
Tides and Currents Weather Stations Pressure Air Temp Water Temp Dewpoint Dewpoint Depression Visibility Wind Speed Wind Dir Waves Ship Positions

Pintail

Owner: Pintail Marine Services, Inc, Friday Harbor, WA. More information available from US FCC via Universal Licensing System and Coast Guard Vessel Documentation Center.

Last reported at 2016-Aug-30 10:31 UTC. Time now 2016-Aug-30 10:56 UTC.
Position N 48°32' W 122°60'.

Length 19 m.

Type: Towing. MMSI: 367460260.

Date/timePositionNaut miles runAvg speedWind from/ knotsBaromVisibWave heightAir tempDewpointWater temp
2016-Aug-30 10:31N 48°32' W 122°60'0 0.0
2016-Aug-30 09:25N 48°32' W 122°60'0 0.0
2016-Aug-30 08:31N 48°32' W 122°60'0 0.0
2016-Aug-30 07:31N 48°32' W 122°60'0 0.0
2016-Aug-30 06:31N 48°32' W 122°60'0 0.0
2016-Aug-30 05:28N 48°32' W 122°60'0 0.0
2016-Aug-30 04:31N 48°32' W 122°60'0 0.0
2016-Aug-30 03:31N 48°32' W 122°60'0 0.0
2016-Aug-30 02:31N 48°32' W 122°60'0 0.0
2016-Aug-30 01:28N 48°32' W 122°60'0 0.0
2016-Aug-30 00:31N 48°32' W 122°60'0 0.0
2016-Aug-29 23:22N 48°32' W 122°60'0 0.0
2016-Aug-29 22:31N 48°32' W 122°60'0 0.0
2016-Aug-29 21:28N 48°32' W 122°60'0 0.0
2016-Aug-29 20:31N 48°32' W 122°60'0 0.1
2016-Aug-29 19:33N 48°32' W 122°60'5 5.5
2016-Aug-29 18:33N 48°34' W 122°52'6 5.6
2016-Aug-29 17:30N 48°32' W 122°44'5 5.2
2016-Aug-29 16:30N 48°31' W 122°36'6 4.3
2016-Aug-29 15:12N 48°32' W 122°45'4 6.1
2016-Aug-29 14:32N 48°33' W 122°51'7 6.5
2016-Aug-29 13:29N 48°36' W 122°60'3 3.3
2016-Aug-29 12:33N 48°33' W 123°00'1 1.4
2016-Aug-29 11:32N 48°32' W 122°60'0 0.0
2016-Aug-29 10:32N 48°32' W 122°60'0 0.0
2016-Aug-29 09:32N 48°32' W 122°60'0 0.0
2016-Aug-29 08:32N 48°32' W 122°60'0 0.0
2016-Aug-29 07:29N 48°32' W 122°60'0 0.0
2016-Aug-29 06:32N 48°32' W 122°60'0 0.0
2016-Aug-29 05:32N 48°32' W 122°60'0 0.0
2016-Aug-29 04:32N 48°32' W 122°60'0 0.0
2016-Aug-29 03:29N 48°32' W 122°60'0 0.0
2016-Aug-29 02:32N 48°32' W 122°60'0 0.0
2016-Aug-29 01:32N 48°32' W 122°60'0 0.0
2016-Aug-29 00:32N 48°32' W 122°60'0 0.0
2016-Aug-28 23:20N 48°32' W 122°60'0 0.0
2016-Aug-28 22:32N 48°32' W 122°60'0 0.0
2016-Aug-28 21:32N 48°32' W 122°60'0 0.0
2016-Aug-28 20:31N 48°32' W 122°60'0 0.0
2016-Aug-28 19:31N 48°32' W 122°60'0 0.0
2016-Aug-28 18:31N 48°32' W 122°60'0 0.0
2016-Aug-28 17:31N 48°32' W 122°60'0 0.0
2016-Aug-28 16:28N 48°32' W 122°60'0 0.0
2016-Aug-28 15:28N 48°32' W 122°60'0 0.0
2016-Aug-28 14:31N 48°32' W 122°60'0 0.0
2016-Aug-28 13:29N 48°32' W 122°60'0 0.0
2016-Aug-28 12:25N 48°32' W 122°60'0 0.0
2016-Aug-28 11:31N 48°32' W 122°60'0 0.0
2016-Aug-28 10:28N 48°32' W 122°60'0 0.0
2016-Aug-28 09:31N 48°32' W 122°60'0 0.0
2016-Aug-28 08:31N 48°32' W 122°60'0 0.0
2016-Aug-28 07:28N 48°32' W 122°60'0 0.0
2016-Aug-28 06:28N 48°32' W 122°60'0 0.0
2016-Aug-28 05:31N 48°32' W 122°60'0 0.0
2016-Aug-28 04:28N 48°32' W 122°60'0 0.0
2016-Aug-28 03:31N 48°32' W 122°60'0 0.0
2016-Aug-28 02:31N 48°32' W 122°60'0 0.0
2016-Aug-28 01:31N 48°32' W 122°60'0 0.0
2016-Aug-28 00:33N 48°32' W 122°60'2 0.3
2016-Aug-27 18:29N 48°34' W 123°00'2 2.1
2016-Aug-27 17:32N 48°32' W 122°60'0 0.0
2016-Aug-27 16:29N 48°32' W 122°60'0 0.0
2016-Aug-27 15:32N 48°32' W 122°60'0 0.0
2016-Aug-27 14:29N 48°32' W 122°60'0 0.0
2016-Aug-27 13:32N 48°32' W 122°60'0 0.0
2016-Aug-27 12:32N 48°32' W 122°60'0 0.0
2016-Aug-27 11:32N 48°32' W 122°60'0 0.0
2016-Aug-27 10:32N 48°32' W 122°60'0 0.0
2016-Aug-27 09:32N 48°32' W 122°60'0 0.0
2016-Aug-27 08:32N 48°32' W 122°60'0 0.0
2016-Aug-27 07:32N 48°32' W 122°60'0 0.0
2016-Aug-27 06:32N 48°32' W 122°60'0 0.0
2016-Aug-27 04:32N 48°32' W 122°60'0 0.0
2016-Aug-27 03:33N 48°32' W 122°60'0 0.0
2016-Aug-27 02:29N 48°32' W 122°60'0 0.0
2016-Aug-27 01:32N 48°32' W 122°60'0 0.0
2016-Aug-27 00:32N 48°32' W 122°60'0 0.0
2016-Aug-26 23:32N 48°32' W 122°60'0 0.0
2016-Aug-26 22:31N 48°32' W 122°60'0 0.0
2016-Aug-26 21:31N 48°32' W 122°60'0 0.0
2016-Aug-26 20:31N 48°32' W 122°60'1 1.5
2016-Aug-26 19:33N 48°32' W 122°58'5 5.4
2016-Aug-26 18:32N 48°33' W 122°50'7 6.1
2016-Aug-26 17:23N 48°31' W 122°40'2 2.5
2016-Aug-26 16:30N 48°31' W 122°36'8 6.0
2016-Aug-26 15:14N 48°32' W 122°48'4 6.5
2016-Aug-26 14:33N 48°34' W 122°53'5 5.1
2016-Aug-26 13:32N 48°32' W 122°60'0 0.0
2016-Aug-26 12:29N 48°32' W 122°60'0 0.0
2016-Aug-26 11:29N 48°32' W 122°60'0 0.0
2016-Aug-26 10:32N 48°32' W 122°60'0 0.0
2016-Aug-26 09:32N 48°32' W 122°60'0 0.0
2016-Aug-26 08:32N 48°32' W 122°60'0 0.0
2016-Aug-26 07:32N 48°32' W 122°60'0 0.0
2016-Aug-26 06:32N 48°32' W 122°60'0 0.0
2016-Aug-26 04:27N 48°32' W 122°60'0 0.0
2016-Aug-26 03:32N 48°32' W 122°60'0 0.0
2016-Aug-26 02:32N 48°32' W 122°60'0 0.0
2016-Aug-26 01:32N 48°32' W 122°60'0 0.0
2016-Aug-26 00:32N 48°32' W 122°60'0 0.0
2016-Aug-25 23:27N 48°32' W 122°60'0 0.0
2016-Aug-25 22:29N 48°32' W 122°60'0 0.0
2016-Aug-25 21:32N 48°32' W 122°60'0 0.0
2016-Aug-25 20:32N 48°32' W 122°60'0 0.0
2016-Aug-25 19:29N 48°32' W 122°60'0 0.0
2016-Aug-25 18:32N 48°32' W 122°60'0 0.0
2016-Aug-25 17:32N 48°32' W 122°60'0 0.0
2016-Aug-25 16:32N 48°32' W 122°60'0 0.0
2016-Aug-25 15:32N 48°32' W 122°60'0 0.0
2016-Aug-25 14:32N 48°32' W 122°60'0 0.0
2016-Aug-25 13:29N 48°32' W 122°60'0 0.0
2016-Aug-25 12:32N 48°32' W 122°60'0 0.0
2016-Aug-25 11:32N 48°32' W 122°60'0 0.0
2016-Aug-25 10:32N 48°32' W 122°60'0 0.0
2016-Aug-25 09:32N 48°32' W 122°60'0 0.0
2016-Aug-25 08:26N 48°32' W 122°60'0 0.0
2016-Aug-25 07:29N 48°32' W 122°60'0 0.0
2016-Aug-25 06:32N 48°32' W 122°60'0 0.0
2016-Aug-25 04:33N 48°32' W 122°60'0 0.0
2016-Aug-25 03:32N 48°32' W 122°60'0 0.0
2016-Aug-25 02:32N 48°32' W 122°60'0 0.0
2016-Aug-25 01:32N 48°32' W 122°60'0 0.0
2016-Aug-25 00:32N 48°32' W 122°60'0 0.0
2016-Aug-24 23:32N 48°32' W 122°60'0 0.0
2016-Aug-24 22:32N 48°32' W 122°60'0 0.0
2016-Aug-24 21:31N 48°32' W 122°60'0 0.0
2016-Aug-24 20:33N 48°32' W 122°60'3 3.3
2016-Aug-24 19:33N 48°33' W 122°55'5 5.2
2016-Aug-24 18:32N 48°32' W 122°48'7 5.9
2016-Aug-24 17:21N 48°31' W 122°37'8 4.5
2016-Aug-24 15:32N 48°32' W 122°50'5 5.1
2016-Aug-24 14:33N 48°32' W 122°57'2 1.8
2016-Aug-24 13:23N 48°32' W 122°60'0 0.0
2016-Aug-24 12:32N 48°32' W 122°60'0 0.0
2016-Aug-24 11:32N 48°32' W 122°60'0 0.0
2016-Aug-24 10:32N 48°32' W 122°60'0 0.0
2016-Aug-24 09:32N 48°32' W 122°60'0 0.0
2016-Aug-24 08:32N 48°32' W 122°60'0 0.0
2016-Aug-24 07:29N 48°32' W 122°60'0 0.0
2016-Aug-24 06:26N 48°32' W 122°60'0 0.0
2016-Aug-24 04:32N 48°32' W 122°60'0 0.0
2016-Aug-24 03:32N 48°32' W 122°60'0 0.0
2016-Aug-24 02:32N 48°32' W 122°60'0 0.0
2016-Aug-24 01:32N 48°32' W 122°60'0 0.0
2016-Aug-24 00:32N 48°32' W 122°60'0 0.0
2016-Aug-23 23:29N 48°32' W 122°60'0 0.0
2016-Aug-23 22:32N 48°32' W 122°60'0 0.0
2016-Aug-23 21:32N 48°32' W 122°60'0 0.0
2016-Aug-23 20:29N 48°32' W 122°60'0 0.0
2016-Aug-23 19:32N 48°32' W 122°60'0 0.0
2016-Aug-23 18:33N 48°32' W 122°60'0 0.0
2016-Aug-23 17:29N 48°32' W 122°60'0 0.0
2016-Aug-23 16:32N 48°32' W 122°60'0 0.0
2016-Aug-23 15:26N 48°32' W 122°60'0 0.0
2016-Aug-23 14:30N 48°32' W 122°60'0 0.0
2016-Aug-23 13:32N 48°32' W 122°60'0 0.0
2016-Aug-23 12:32N 48°32' W 122°60'0 0.0
2016-Aug-23 11:32N 48°32' W 122°60'0 0.0
2016-Aug-23 10:32N 48°32' W 122°60'0 0.0
2016-Aug-23 09:32N 48°32' W 122°60'0 0.0
2016-Aug-23 08:32N 48°32' W 122°60'0 0.0
2016-Aug-23 07:32N 48°32' W 122°60'0 0.0
2016-Aug-23 06:32N 48°32' W 122°60'0 0.0
2016-Aug-23 05:32N 48°32' W 122°60'0 0.0
2016-Aug-23 04:32N 48°32' W 122°60'0 0.0
2016-Aug-23 03:29N 48°32' W 122°60'0 0.0
2016-Aug-23 02:32N 48°32' W 122°60'0 0.0
2016-Aug-23 01:32N 48°32' W 122°60'0 0.0
2016-Aug-23 00:28N 48°32' W 122°60'0 0.0
2016-Aug-22 23:31N 48°32' W 122°60'0 0.0
2016-Aug-22 22:31N 48°32' W 122°60'0 0.0
2016-Aug-22 21:31N 48°32' W 122°60'0 0.1
2016-Aug-22 20:28N 48°32' W 122°60'4 4.8
2016-Aug-22 19:33N 48°34' W 122°54'6 5.3
2016-Aug-22 18:25N 48°32' W 122°46'6 7.0
2016-Aug-22 17:33N 48°31' W 122°37'9 4.4
2016-Aug-22 15:33N 48°33' W 122°50'5 4.6
2016-Aug-22 14:33N 48°33' W 122°57'2 2.2
2016-Aug-22 13:32N 48°32' W 122°60'0 0.0
2016-Aug-22 12:32N 48°32' W 122°60'0 0.0
2016-Aug-22 11:32N 48°32' W 122°60'0 0.0
2016-Aug-22 10:29N 48°32' W 122°60'0 0.0
2016-Aug-22 09:32N 48°32' W 122°60'0 0.0
2016-Aug-22 08:32N 48°32' W 122°60'0 0.0
2016-Aug-22 07:32N 48°32' W 122°60'0 0.0
2016-Aug-22 06:32N 48°32' W 122°60'0 0.0
2016-Aug-22 05:32N 48°32' W 122°60'0 0.0
2016-Aug-22 04:32N 48°32' W 122°60'0 0.0
2016-Aug-22 03:32N 48°32' W 122°60'0 0.0
2016-Aug-22 02:29N 48°32' W 122°60'0 0.0
2016-Aug-22 01:32N 48°32' W 122°60'0 0.0
2016-Aug-22 00:29N 48°32' W 122°60'0 0.0
2016-Aug-21 23:32N 48°32' W 122°60'0 0.0
2016-Aug-21 22:32N 48°32' W 122°60'0 0.0
2016-Aug-21 21:26N 48°32' W 122°60'0 0.0
2016-Aug-21 20:32N 48°32' W 122°60'0 0.0
2016-Aug-21 19:32N 48°32' W 122°60'0 0.0
2016-Aug-21 18:26N 48°32' W 122°60'0 0.0
2016-Aug-21 17:29N 48°32' W 122°60'0 0.0
2016-Aug-21 16:23N 48°32' W 122°60'0 0.0
2016-Aug-21 15:32N 48°32' W 122°60'0 0.0
2016-Aug-21 14:32N 48°32' W 122°60'0 0.0
2016-Aug-21 13:29N 48°32' W 122°60'0 0.0
2016-Aug-21 12:32N 48°32' W 122°60'0 0.0
2016-Aug-21 11:32N 48°32' W 122°60'0 0.0
2016-Aug-21 10:32N 48°32' W 122°60'0 0.0
2016-Aug-21 09:30N 48°32' W 122°60'0 0.0
2016-Aug-21 08:32N 48°32' W 122°60'0 0.0
2016-Aug-21 07:32N 48°32' W 122°60'0 0.0
2016-Aug-21 06:29N 48°32' W 122°60'0 0.0
2016-Aug-21 05:32N 48°32' W 122°60'0 0.0
2016-Aug-21 04:32N 48°32' W 122°60'0 0.0
2016-Aug-21 03:32N 48°32' W 122°60'0 0.0
2016-Aug-21 02:32N 48°32' W 122°60'0 0.0
2016-Aug-21 01:29N 48°32' W 122°60'0 0.0
2016-Aug-21 00:32N 48°32' W 122°60'0 0.0
2016-Aug-20 23:32N 48°32' W 122°60'0 0.0
2016-Aug-20 22:32N 48°32' W 122°60'0 0.0
2016-Aug-20 21:32N 48°32' W 122°60'0 0.0
2016-Aug-20 20:32N 48°32' W 122°60'0 0.0
2016-Aug-20 19:32N 48°32' W 122°60'0 0.0
2016-Aug-20 18:30N 48°32' W 122°60'0 0.0
2016-Aug-20 17:32N 48°32' W 122°60'0 0.0
2016-Aug-20 16:32N 48°32' W 122°60'0 0.0
2016-Aug-20 15:32N 48°32' W 122°60'0 0.0
2016-Aug-20 14:32N 48°32' W 122°60'0 0.0
2016-Aug-20 13:32N 48°32' W 122°60'0 0.0
2016-Aug-20 12:29N 48°32' W 122°60'0 0.0
2016-Aug-20 11:32N 48°32' W 122°60'0 0.0
2016-Aug-20 10:32N 48°32' W 122°60'  

Dump ship's entire track history